27 maja 2022

Czas Kod Pogoda Temp. Widoczność Sufit Wiatr METAR/SPECI
8:25 pm
V
57 °F 6¼ mi+ 3.800 ft 290° 290° 14 kt METAR EHLE 271825Z AUTO 29014KT 260V330 9999 SCT032 BKN038 BKN043 14/06 Q1021 NOSIG
7:55 pm
V
57 °F 6¼ mi+ 3.800 ft 290° 290° 12 kt METAR EHLE 271755Z AUTO 29012KT 250V330 9999 SCT033 BKN038 BKN043 14/07 Q1022 NOSIG
7:25 pm
V
59 °F 6¼ mi+ 4.500 ft 300° 300° 14 kt METAR EHLE 271725Z AUTO 30014KT 270V350 9999 SCT032 BKN045 15/07 Q1022 NOSIG
6:55 pm
V
57 °F 6¼ mi+ 3.900 ft 300° 300° 16 kt METAR EHLE 271655Z AUTO 30016KT 260V340 9999 SCT032 BKN039 BKN044 14/07 Q1022 NOSIG
6:25 pm
V
59 °F 6¼ mi+ 4.800 ft 300° 300° 16 kt METAR EHLE 271625Z AUTO 30016KT 270V350 9999 FEW034 BKN048 15/06 Q1022 NOSIG
5:55 pm
V
57 °F 6¼ mi+ 3.300 ft 290° 290° 14 - 25 kt METAR EHLE 271555Z AUTO 29014G25KT 250V330 9999 BKN033 BKN038 BKN042 14/07 Q1022 NOSIG
5:25 pm
V
57 °F 6¼ mi+ 4.400 ft 290° 290° 16 kt METAR EHLE 271525Z AUTO 29016KT 250V340 9999 SCT031 BKN044 BKN049 14/07 Q1022 NOSIG
4:55 pm
V
57 °F 6¼ mi+ 3.600 ft 290° 290° 17 kt METAR EHLE 271455Z AUTO 29017KT 250V330 9999 SCT031 BKN036 BKN041 14/07 Q1022 NOSIG
4:25 pm
V
59 °F 6¼ mi+ 4.200 ft 290° 290° 15 - 25 kt METAR EHLE 271425Z AUTO 29015G25KT 240V330 9999 SCT031 SCT037 BKN042 15/07 Q1022 NOSIG
3:55 pm
V
59 °F 6¼ mi+ - 290° 290° 16 kt METAR EHLE 271355Z AUTO 29016KT 250V330 9999 FEW031 SCT044 15/07 Q1021 NOSIG
3:25 pm
V
57 °F 6¼ mi+ - 290° 290° 16 kt METAR EHLE 271325Z AUTO 29016KT 250V320 9999 FEW033 14/07 Q1021 NOSIG
2:55 pm
V
59 °F 6¼ mi+ 4.400 ft 280° 280° 18 kt METAR EHLE 271255Z AUTO 28018KT 250V320 9999 FEW034 BKN044 15/08 Q1021 NOSIG
2:25 pm
V
59 °F 6¼ mi+ - 280° 280° 17 kt METAR EHLE 271225Z AUTO 28017KT 240V320 9999 FEW036 SCT044 15/07 Q1021 NOSIG
1:55 pm
V
59 °F 6¼ mi+ - 280° 280° 16 kt METAR EHLE 271155Z AUTO 28016KT 230V330 9999 FEW036 15/06 Q1021 NOSIG
1:25 pm
V
59 °F 6¼ mi+ - 290° 290° 16 kt METAR EHLE 271125Z AUTO 29016KT 250V330 9999 FEW036 15/08 Q1021 NOSIG
12:55 pm
V
59 °F 6¼ mi+ - 280° 280° 18 kt METAR EHLE 271055Z AUTO 28018KT 240V320 9999 FEW032 15/07 Q1020 NOSIG
12:25 pm
V
57 °F 6¼ mi+ 4.200 ft 290° 290° 16 kt METAR EHLE 271025Z AUTO 29016KT 260V330 9999 SCT031 SCT037 BKN042 14/07 Q1020 NOSIG
11:55 am
V
59 °F 6¼ mi+ - 280° 280° 15 kt METAR EHLE 270955Z AUTO 28015KT 240V310 9999 SCT034 15/07 Q1020 NOSIG
11:25 am
V
59 °F 6¼ mi+ - 290° 290° 15 kt METAR EHLE 270925Z AUTO 29015KT 250V330 9999 SCT034 SCT040 15/07 Q1020 NOSIG
10:55 am
V
59 °F 6¼ mi+ - 290° 290° 14 kt METAR EHLE 270855Z AUTO 29014KT 240V350 9999 FEW033 15/08 Q1020 NOSIG
10:25 am
V
57 °F 6¼ mi+ 3.700 ft 290° 290° 12 kt METAR EHLE 270825Z AUTO 29012KT 260V340 9999 SCT032 BKN037 OVC041 14/07 Q1020 NOSIG
9:55 am
V
57 °F 6¼ mi+ 4.100 ft 290° 290° 15 kt METAR EHLE 270755Z AUTO 29015KT 240V330 9999 SCT036 BKN041 14/07 Q1020 NOSIG
9:25 am
V
57 °F 6¼ mi+ - 290° 290° 12 kt METAR EHLE 270725Z AUTO 29012KT 250V320 9999 FEW036 SCT041 14/07 Q1019 NOSIG
8:55 am
V
57 °F 6¼ mi+ - 290° 290° 13 kt METAR EHLE 270655Z AUTO 29013KT 260V330 9999 FEW034 14/07 Q1019 NOSIG
8:25 am
V
57 °F 6¼ mi+ - 280° 280° 16 kt METAR EHLE 270625Z AUTO 28016KT 250V330 9999 FEW031 14/07 Q1019 NOSIG
7:55 am
V
57 °F 6¼ mi+ - 290° 290° 12 kt METAR EHLE 270555Z AUTO 29012KT 250V320 9999 NSC 14/09 Q1019 NOSIG
7:25 am
V
57 °F 6¼ mi+ - 290° 290° 11 kt METAR EHLE 270525Z AUTO 29011KT 250V330 9999 FEW021 14/10 Q1018 NOSIG
6:55 am
V
57 °F 6¼ mi+ - 290° 290° 10 kt METAR EHLE 270455Z AUTO 29010KT 240V320 9999 NSC 14/10 Q1018
6:25 am
V
55 °F 6¼ mi+ - 280° 280° 10 kt METAR EHLE 270425Z AUTO 28010KT 240V330 9999 FEW024 13/10 Q1018
5:55 am
V
57 °F 6¼ mi+ 4.400 ft 280° 280° 9 kt METAR EHLE 270355Z AUTO 28009KT 260V320 9999 BKN044 OVC049 14/10 Q1018
5:25 am
V
55 °F 6¼ mi+ 4.300 ft 280° 280° 9 kt METAR EHLE 270325Z AUTO 28009KT 260V320 9999 BKN043 BKN049 13/11 Q1018
4:55 am
M
57 °F 6¼ mi+ 2.100 ft 280° 280° 9 kt METAR EHLE 270255Z AUTO 28009KT 250V320 9999 SCT016 BKN021 BKN025 14/11 Q1018
4:25 am
M
57 °F 6¼ mi+ 2.000 ft 280° 280° 9 kt METAR EHLE 270225Z AUTO 28009KT 260V320 9999 SCT016 BKN020 14/12 Q1018
3:55 am
V
57 °F 6¼ mi+ - 270° 270° 11 kt METAR EHLE 270155Z AUTO 27011KT 240V300 9999 NSC 14/12 Q1018
3:25 am
M
55 °F 6¼ mi+ 1.900 ft 270° 270° 11 kt METAR EHLE 270125Z AUTO 27011KT 240V310 9999 SCT015 BKN019 BKN025 13/12 Q1018
2:55 am
M
57 °F 6¼ mi+ 1.200 ft 260° 260° 12 kt METAR EHLE 270055Z AUTO 26012KT 9999 FEW008 SCT010 BKN012 14/13 Q1018
2:25 am
I
57 °F 6¼ mi+ 900 ft 260° 260° 11 kt METAR EHLE 270025Z AUTO 26011KT 230V290 9999 SCT007 BKN009 OVC010 14/13 Q1018 REDZ
1:55 am
V
57 °F 6¼ mi+ 4.700 ft 270° 270° 12 kt METAR EHLE 262355Z AUTO 27012KT 230V310 9999 -RADZ FEW015CB SCT038 BKN047 14/13 Q1018 RERA REDZ
1:25 am
M
59 °F 3⅛ mi 1.200 ft 270° 270° 18 kt METAR EHLE 262325Z AUTO 27018KT 230V310 5000 SHRA SCT010 BKN012 FEW015CB OVC028 15/13 Q1018 REDZ
12:55 am
M
59 °F 6¼ mi+ 1.600 ft 240° 240° 14 kt METAR EHLE 262255Z AUTO 24014KT 210V280 9999 RA BKN016 OVC020 15/14 Q1018 RERA REDZ
12:25 am
M
59 °F 6¼ mi+ 2.000 ft 230° 230° 13 kt METAR EHLE 262225Z AUTO 23013KT 210V270 9999 DZ FEW015CB SCT016 BKN020 OVC032 15/13 Q1018

26 maja 2022

Czas Kod Pogoda Temp. Widoczność Sufit Wiatr METAR/SPECI
11:55 pm
M
59 °F 6¼ mi+ 2.100 ft 230° 230° 12 kt METAR EHLE 262155Z AUTO 23012KT 190V260 9999 -RADZ SCT016 BKN021 BKN026 15/13 Q1018 RERA REDZ
11:25 pm
V
59 °F 6¼ mi+ - 230° 230° 13 kt METAR EHLE 262125Z AUTO 23013KT 190V260 9999 FEW017 SCT038 15/13 Q1018
10:55 pm
V
59 °F 6¼ mi+ 3.200 ft 230° 230° 12 kt METAR EHLE 262055Z AUTO 23012KT 200V260 9999 FEW018 SCT023 BKN032 15/13 Q1018
10:25 pm
V
61 °F 6¼ mi+ 4.400 ft 240° 240° 15 kt METAR EHLE 262025Z AUTO 24015KT 210V280 9999 FEW018 SCT031 BKN044 16/12 Q1018
9:55 pm
V
61 °F 6¼ mi+ 3.700 ft 240° 240° 16 kt METAR EHLE 261955Z AUTO 24016KT 190V290 9999 SCT032 BKN037 BKN043 16/12 Q1018
9:25 pm
V
61 °F 6¼ mi+ 3.300 ft 240° 240° 17 kt METAR EHLE 261925Z AUTO 24017KT 210V270 9999 -RA BKN033 BKN043 BKN048 16/12 Q1018 NOSIG
8:55 pm
V
61 °F 6¼ mi+ 3.100 ft 240° 240° 15 kt METAR EHLE 261855Z AUTO 24015KT 200V270 9999 FEW024 OVC031 16/12 Q1018 NOSIG
8:25 pm
M
63 °F 6¼ mi+ 2.500 ft 240° 240° 14 kt METAR EHLE 261825Z AUTO 24014KT 200V280 9999 BKN025 BKN030 OVC036 17/12 Q1018 NOSIG
7:55 pm
M
63 °F 6¼ mi+ 2.800 ft 240° 240° 15 kt METAR EHLE 261755Z AUTO 24015KT 9999 SCT025 BKN028 BKN032 17/12 Q1018 NOSIG
7:25 pm
V
63 °F 6¼ mi+ 3.300 ft 240° 240° 13 kt METAR EHLE 261725Z AUTO 24013KT 190V270 9999 SCT027 OVC033 17/11 Q1018 NOSIG
6:55 pm
M
63 °F 6¼ mi+ 2.900 ft 250° 250° 16 kt METAR EHLE 261655Z AUTO 25016KT 9999 BKN029 BKN033 BKN039 17/11 Q1019 NOSIG
6:25 pm
M
63 °F 6¼ mi+ 2.900 ft 240° 240° 14 kt METAR EHLE 261625Z AUTO 24014KT 210V280 9999 BKN029 OVC033 17/11 Q1019 NOSIG
5:55 pm
V
63 °F 6¼ mi+ 3.000 ft 260° 260° 16 kt METAR EHLE 261555Z AUTO 26016KT 230V300 9999 BKN030 BKN035 17/11 Q1019 NOSIG
5:25 pm
V
63 °F 6¼ mi+ 3.000 ft 250° 250° 16 kt METAR EHLE 261525Z AUTO 25016KT 210V290 9999 BKN030 OVC035 17/10 Q1019 NOSIG
4:55 pm
V
64 °F 6¼ mi+ - 250° 250° 17 kt METAR EHLE 261455Z AUTO 25017KT 220V290 9999 FEW031 18/11 Q1019 NOSIG
4:25 pm
V
64 °F 6¼ mi+ - 250° 250° 17 kt METAR EHLE 261425Z AUTO 25017KT 210V280 9999 SCT033 SCT041 18/11 Q1019 NOSIG
3:55 pm
V
64 °F 6¼ mi+ 3.300 ft 240° 240° 15 kt METAR EHLE 261355Z AUTO 24015KT 200V280 9999 BKN033 BKN038 OVC043 18/10 Q1019 NOSIG
3:25 pm
V
64 °F 6¼ mi+ 4.000 ft 240° 240° 16 kt METAR EHLE 261325Z AUTO 24016KT 200V270 9999 SCT034 BKN040 BKN046 18/11 Q1019 NOSIG
2:55 pm
V
66 °F 6¼ mi+ 4.000 ft 250° 250° 18 kt METAR EHLE 261255Z AUTO 25018KT 210V280 9999 SCT035 BKN040 19/11 Q1019 NOSIG
2:25 pm
V
64 °F 6¼ mi+ 3.900 ft 250° 250° 16 kt METAR EHLE 261225Z AUTO 25016KT 210V290 9999 SCT033 BKN039 18/10 Q1020 NOSIG
1:55 pm
V
64 °F 6¼ mi+ 3.800 ft 240° 240° 16 kt METAR EHLE 261155Z AUTO 24016KT 200V280 9999 SCT033 BKN038 18/11 Q1020 NOSIG
1:25 pm
V
63 °F 6¼ mi+ 3.100 ft 250° 250° 15 kt METAR EHLE 261125Z AUTO 25015KT 220V280 9999 BKN031 BKN037 BKN043 17/11 Q1020 NOSIG
12:55 pm
V
64 °F 6¼ mi+ - 250° 250° 17 kt METAR EHLE 261055Z AUTO 25017KT 220V290 9999 SCT031 SCT036 18/11 Q1020 NOSIG
12:25 pm
V
64 °F 6¼ mi+ 3.100 ft 240° 240° 14 kt METAR EHLE 261025Z AUTO 24014KT 200V290 9999 SCT027 BKN031 BKN035 18/12 Q1020 NOSIG
11:55 am
M
64 °F 6¼ mi+ 2.900 ft 260° 260° 14 kt METAR EHLE 260955Z AUTO 26014KT 230V290 9999 SCT026 BKN029 18/11 Q1020 NOSIG
11:25 am
M
64 °F 6¼ mi+ 2.900 ft 230° 230° 13 kt METAR EHLE 260925Z AUTO 23013KT 200V270 9999 FEW026 BKN029 BKN034 18/13 Q1019 NOSIG
10:55 am
V
64 °F 6¼ mi+ 3.200 ft 240° 240° 10 kt METAR EHLE 260855Z AUTO 24010KT 200V270 9999 FEW027 BKN032 OVC036 18/12 Q1019 NOSIG
10:25 am
V
63 °F 6¼ mi+ 3.800 ft 260° 260° 11 kt METAR EHLE 260825Z AUTO 26011KT 220V300 9999 FEW029 SCT033 BKN038 17/10 Q1019 NOSIG
9:55 am
V
63 °F 6¼ mi+ - 270° 270° 10 kt METAR EHLE 260755Z AUTO 27010KT 220V300 9999 NSC 17/11 Q1019 NOSIG
9:25 am
V
63 °F 6¼ mi+ - 270° 270° 9 kt METAR EHLE 260725Z AUTO 27009KT 230V310 9999 NSC 17/11 Q1019 NOSIG
8:55 am
V
61 °F 6¼ mi+ - 270° 270° 9 kt METAR EHLE 260655Z AUTO 27009KT 230V300 9999 NSC 16/11 Q1018 NOSIG
8:25 am
V
59 °F 6¼ mi+ - 270° 270° 8 kt METAR EHLE 260625Z AUTO 27008KT 240V310 9999 NSC 15/11 Q1018 NOSIG
7:55 am
V
59 °F 6¼ mi+ - 260° 260° 8 kt METAR EHLE 260555Z AUTO 26008KT 230V290 9999 NSC 15/12 Q1018 NOSIG
7:25 am
V
57 °F 6¼ mi+ - 250° 250° 7 kt METAR EHLE 260525Z AUTO 25007KT 9999 NSC 14/12 Q1017
6:55 am
V
57 °F 6¼ mi+ - 260° 260° 6 kt METAR EHLE 260455Z AUTO 26006KT 9999 NSC 14/12 Q1017
6:25 am
V
57 °F 6¼ mi+ - 260° 260° 7 kt METAR EHLE 260425Z AUTO 26007KT 9999 NSC 14/12 Q1017
5:55 am
V
57 °F 6¼ mi+ - 260° 260° 7 kt METAR EHLE 260355Z AUTO 26007KT 9999 NSC 14/12 Q1017
5:25 am
V
57 °F 6¼ mi+ - 250° 250° 7 kt METAR EHLE 260325Z AUTO 25007KT 9999 NSC 14/12 Q1016
4:55 am
V
57 °F 6¼ mi+ 4.300 ft 240° 240° 7 kt METAR EHLE 260255Z AUTO 24007KT 210V270 9999 BKN043 14/13 Q1016
4:25 am
V
57 °F 6¼ mi+ 3.700 ft 260° 260° 9 kt METAR EHLE 260225Z AUTO 26009KT 230V300 9999 BKN037 BKN041 OVC048 14/12 Q1016
3:55 am
V
57 °F 6¼ mi+ 4.500 ft 240° 240° 9 kt METAR EHLE 260155Z AUTO 24009KT 9999 SCT040 BKN045 14/13 Q1016
3:25 am
V
57 °F 6¼ mi+ - 240° 240° 9 kt METAR EHLE 260125Z AUTO 24009KT 210V270 9999 FEW013 14/13 Q1015
2:55 am
M
57 °F 6¼ mi+ 1.700 ft 230° 230° 10 kt METAR EHLE 260055Z AUTO 23010KT 9999 FEW014 OVC017 14/13 Q1015
2:25 am
M
57 °F 6¼ mi+ 1.400 ft 240° 240° 10 kt METAR EHLE 260025Z AUTO 24010KT 200V260 9999 FEW012 BKN014 OVC018 14/13 Q1015
1:55 am
M
57 °F 6¼ mi+ 1.500 ft 230° 230° 10 kt METAR EHLE 252355Z AUTO 23010KT 9999 FEW010 SCT013 BKN015CB 14/13 Q1015
1:25 am
I
57 °F 2⅞ mi 1.200 ft 220° 220° 11 kt METAR EHLE 252325Z AUTO 22011KT 190V250 4600 +SHRA SCT010 BKN012 BKN014 FEW015CB 14/13 Q1015 REUP
12:55 am
M
57 °F 6¼ mi+ 1.300 ft 220° 220° 9 kt METAR EHLE 252255Z AUTO 22009KT 190V250 9999 -RA FEW011 BKN013 OVC016 14/13 Q1015
12:25 am
M
57 °F 6¼ mi+ 1.700 ft 220° 220° 10 kt METAR EHLE 252225Z AUTO 22010KT 190V250 9999 SCT013 OVC017 14/13 Q1015 REDZ

25 maja 2022

Czas Kod Pogoda Temp. Widoczność Sufit Wiatr METAR/SPECI
11:55 pm
M
57 °F 4⅜ mi 1.200 ft 220° 220° 9 kt METAR EHLE 252155Z AUTO 22009KT 190V250 7000 -SHRA BKN012 BKN014 FEW015CB 14/12 Q1015 REDZ
11:25 pm
M
57 °F 6¼ mi+ 1.600 ft 210° 210° 9 kt METAR EHLE 252125Z AUTO 21009KT 9999 SCT014 BKN016 OVC019 14/12 Q1015
10:55 pm
M
55 °F 6¼ mi+ 2.200 ft 210° 210° 10 kt METAR EHLE 252055Z AUTO 21010KT 180V260 9999 SCT018 OVC022 13/12 Q1015
10:25 pm
M
55 °F 6¼ mi+ 1.400 ft 210° 210° 12 kt METAR EHLE 252025Z AUTO 21012KT 9999 FEW011 BKN014 OVC016 13/12 Q1014
9:55 pm
M
55 °F 6¼ mi+ 1.100 ft 210° 210° 12 kt METAR EHLE 251955Z AUTO 21012KT 190V260 9999 BKN011 OVC014 13/12 Q1014 NOSIG
9:25 pm
M
55 °F 6¼ mi+ 1.100 ft 210° 210° 12 kt METAR EHLE 251925Z AUTO 21012KT 160V240 9999 FEW008 BKN011 OVC013 13/12 Q1014 REDZ NOSIG
8:55 pm
I
55 °F 2⅜ mi 700 ft 210° 210° 13 kt METAR EHLE 251855Z AUTO 21013KT 3900 DZ SCT006 BKN007 BKN009 13/12 Q1014 BECMG 8000 BKN014
8:25 pm
I
55 °F 2¼ mi 600 ft 220° 220° 13 kt METAR EHLE 251825Z AUTO 22013KT 180V250 3600 -RA FEW005 BKN006 BKN008 13/12 Q1014 RERA REDZ BECMG 8000 BKN014
7:55 pm
I
55 °F 2½ mi 1.200 ft 220° 220° 13 kt METAR EHLE 251755Z AUTO 22013KT 180V250 4000 DZ FEW010 BKN012 BKN016 13/12 Q1014 TEMPO 9000
7:25 pm
I
55 °F 3 mi 1.700 ft 220° 220° 17 kt METAR EHLE 251725Z AUTO 22017KT 180V260 4900 -RADZ FEW013 BKN017 OVC021 13/11 Q1014 TEMPO 9000
6:55 pm
M
57 °F 6¼ mi+ 2.800 ft 240° 240° 22 kt METAR EHLE 251655Z AUTO 24022KT 210V270 9999 FEW020 BKN028 OVC032 14/10 Q1014 NOSIG
6:25 pm
V
61 °F 6¼ mi+ 3.500 ft 240° 240° 17 kt METAR EHLE 251625Z AUTO 24017KT 9999 BKN035 OVC043 16/08 Q1013 NOSIG
5:55 pm
V
63 °F 6¼ mi+ - 250° 250° 21 kt METAR EHLE 251555Z AUTO 25021KT 220V280 9999 FEW030 SCT047 17/08 Q1013 NOSIG
5:25 pm
V
63 °F 6¼ mi+ 4.500 ft 240° 240° 21 kt METAR EHLE 251525Z AUTO 24021KT 200V280 9999 SCT041 BKN045 17/08 Q1013 NOSIG
4:55 pm
V
63 °F 6¼ mi+ - 240° 240° 20 kt METAR EHLE 251455Z AUTO 24020KT 200V270 9999 FEW038 17/09 Q1013 NOSIG
Starsze dane

Pobierz naszą aplikację

Łatwy dostęp do całej pogody lotniczej na telefonie komórkowym i tablecie.
Z wieloma funkcjami niedostępnymi na stronie internetowej, takimi jak wsparcie offline i osobista lista lotnisk.

My i osoby trzecie śledzimy twoje zachowanie w internecie na naszej stronie za pomocą plików cookie. Jeśli kontynuujesz, zakładamy, że zgadzasz się z naszą polityką plików cookie. Dowiedz się więcej